createdAt,value
2018-03-14T00:00:08.410Z,99.99
2018-03-14T00:01:08.381Z,99.99
2018-03-14T00:02:08.396Z,99.99
2018-03-14T00:03:08.363Z,99.99
2018-03-14T00:04:08.293Z,99.39
2018-03-14T00:05:08.263Z,98.92
2018-03-14T00:06:08.310Z,98.73
2018-03-14T00:07:08.203Z,99.39
2018-03-14T00:08:08.175Z,99.58
2018-03-14T00:09:08.190Z,98.63
2018-03-14T00:10:08.121Z,98.73
2018-03-14T00:11:08.092Z,99.39
2018-03-14T00:12:08.063Z,99.49
2018-03-14T00:13:08.077Z,98.44
2018-03-14T00:14:08.005Z,99.39
2018-03-14T00:15:08.021Z,99.77
2018-03-14T00:16:07.945Z,99.30
2018-03-14T00:17:07.920Z,99.20
2018-03-14T00:18:07.892Z,98.63
2018-03-14T00:19:07.914Z,98.25
2018-03-14T00:20:07.832Z,98.92
2018-03-14T00:21:07.800Z,99.96
2018-03-14T00:22:07.774Z,99.68
2018-03-14T00:23:07.748Z,98.73
2018-03-14T00:24:07.764Z,98.35
2018-03-14T00:25:07.728Z,99.49
2018-03-14T00:26:07.691Z,99.99
2018-03-14T00:27:07.630Z,99.68
2018-03-14T00:28:07.646Z,98.82
2018-03-14T00:29:07.574Z,98.44
2018-03-14T00:30:07.593Z,99.11
2018-03-14T00:31:07.518Z,99.58
2018-03-14T00:32:07.486Z,99.39
2018-03-14T00:33:07.484Z,99.11
2018-03-14T00:34:07.428Z,98.35
2018-03-14T00:35:07.443Z,98.35
2018-03-14T00:36:07.370Z,99.49
2018-03-14T00:37:07.347Z,99.77
2018-03-14T00:38:07.315Z,98.63
2018-03-14T00:39:07.340Z,98.35
2018-03-14T00:40:07.257Z,98.73
2018-03-14T00:41:07.230Z,98.44
2018-03-14T00:42:07.198Z,98.82
2018-03-14T00:43:07.181Z,98.82
2018-03-14T00:44:07.186Z,98.82
2018-03-14T00:45:07.110Z,99.39
2018-03-14T00:46:07.108Z,99.39
2018-03-14T00:47:07.052Z,99.77
2018-03-14T00:48:07.066Z,99.99
2018-03-14T00:49:07.000Z,99.39
2018-03-14T00:50:07.031Z,99.58
2018-03-14T00:51:06.987Z,99.77
2018-03-14T00:52:06.909Z,99.58
2018-03-14T00:53:06.878Z,99.68
2018-03-14T00:54:06.902Z,99.49
2018-03-14T00:55:06.874Z,99.58
2018-03-14T00:56:06.796Z,99.20
2018-03-14T00:57:06.764Z,99.49
2018-03-14T00:58:06.739Z,98.92
2018-03-14T00:59:06.716Z,99.58
2018-03-14T01:00:06.726Z,99.39
2018-03-14T01:01:06.653Z,98.82
2018-03-14T01:02:06.618Z,99.01
2018-03-14T01:03:06.590Z,99.39
2018-03-14T01:04:06.560Z,99.39
2018-03-14T01:05:06.572Z,99.49
2018-03-14T01:06:06.503Z,99.68
2018-03-14T01:07:07.453Z,99.99
2018-03-14T01:08:06.486Z,99.99
2018-03-14T01:09:06.417Z,99.77
2018-03-14T01:10:06.389Z,99.30
2018-03-14T01:11:06.416Z,99.87
2018-03-14T01:12:06.371Z,99.99
2018-03-14T01:13:06.306Z,99.99
2018-03-14T01:14:06.278Z,99.99
2018-03-14T01:15:06.247Z,99.99
2018-03-14T01:16:06.253Z,99.99
2018-03-14T01:17:06.197Z,99.87
2018-03-14T01:18:06.196Z,99.77
2018-03-14T01:19:06.131Z,99.77
2018-03-14T01:20:06.100Z,99.68
2018-03-14T01:21:06.069Z,99.99
2018-03-14T01:22:06.041Z,99.99
2018-03-14T01:23:06.063Z,99.30
2018-03-14T01:24:05.989Z,99.99
2018-03-14T01:25:05.954Z,99.96
2018-03-14T01:26:05.923Z,99.96
2018-03-14T01:27:05.899Z,99.99
2018-03-14T01:28:05.907Z,99.96
2018-03-14T01:29:05.881Z,99.58
2018-03-14T01:30:05.807Z,98.44
2018-03-14T01:31:06.004Z,98.07
2018-03-14T01:32:05.752Z,98.16
2018-03-14T01:33:05.771Z,97.88
2018-03-14T01:34:05.744Z,98.73
2018-03-14T01:35:05.693Z,99.58
2018-03-14T01:36:05.698Z,99.20
2018-03-14T01:37:05.644Z,98.73
2018-03-14T01:38:05.583Z,97.78
2018-03-14T01:39:05.599Z,98.44
2018-03-14T01:40:05.519Z,98.16
2018-03-14T01:41:05.486Z,97.78
2018-03-14T01:42:05.514Z,98.35
2018-03-14T01:43:05.958Z,98.25
2018-03-14T01:44:05.402Z,97.88
2018-03-14T01:45:05.417Z,97.88
2018-03-14T01:46:05.342Z,97.97
2018-03-14T01:47:05.510Z,98.35
2018-03-14T01:48:05.328Z,98.16
2018-03-14T01:49:05.256Z,98.63
2018-03-14T01:50:05.224Z,98.82
2018-03-14T01:51:05.199Z,99.58
2018-03-14T01:52:05.182Z,99.96
2018-03-14T01:53:05.190Z,99.99
2018-03-14T01:54:05.116Z,99.99
2018-03-14T01:55:05.084Z,99.96
2018-03-14T01:56:05.056Z,98.82
2018-03-14T01:57:05.023Z,98.16
2018-03-14T01:58:05.037Z,98.35
2018-03-14T01:59:04.970Z,98.35
2018-03-14T02:00:04.983Z,98.35
2018-03-14T02:01:04.904Z,98.63
2018-03-14T02:02:04.933Z,98.63
2018-03-14T02:03:04.886Z,99.58
2018-03-14T02:04:04.866Z,99.39
2018-03-14T02:05:04.794Z,99.30
2018-03-14T02:06:04.762Z,99.58
2018-03-14T02:07:04.783Z,99.58
2018-03-14T02:08:04.703Z,99.39
2018-03-14T02:09:04.675Z,99.77
2018-03-14T02:10:04.648Z,99.96
2018-03-14T02:11:04.619Z,99.68
2018-03-14T02:12:04.635Z,99.68
2018-03-14T02:13:04.604Z,99.99
2018-03-14T02:14:04.533Z,99.96
2018-03-14T02:15:04.502Z,99.87
2018-03-14T02:16:04.472Z,99.99
2018-03-14T02:17:04.444Z,99.99
2018-03-14T02:18:04.464Z,99.99
2018-03-14T02:19:04.380Z,99.99
2018-03-14T02:20:04.401Z,99.99
2018-03-14T02:21:04.325Z,99.99
2018-03-14T02:22:04.299Z,99.99
2018-03-14T02:23:04.275Z,99.99
2018-03-14T02:24:04.253Z,99.99
2018-03-14T02:25:04.252Z,99.99
2018-03-14T02:26:04.221Z,99.99
2018-03-14T02:27:04.151Z,99.99
2018-03-14T02:28:04.168Z,99.99
2018-03-14T02:29:04.096Z,99.99
2018-03-14T02:30:04.062Z,99.99
2018-03-14T02:31:04.075Z,99.99
2018-03-14T02:32:04.006Z,99.99
2018-03-14T02:33:03.977Z,99.99
2018-03-14T02:34:04.116Z,99.99
2018-03-14T02:35:03.918Z,99.99
2018-03-14T02:36:03.886Z,99.99
2018-03-14T02:37:03.859Z,99.99
2018-03-14T02:38:03.861Z,99.99
2018-03-14T02:39:03.852Z,99.99
2018-03-14T02:40:03.812Z,99.99
2018-03-14T02:41:04.463Z,99.99
2018-03-14T02:42:03.716Z,99.99
2018-03-14T02:43:03.686Z,99.99
2018-03-14T02:44:03.656Z,99.99
2018-03-14T02:45:03.672Z,99.99
2018-03-14T02:46:03.605Z,99.99
2018-03-14T02:47:03.566Z,99.99
2018-03-14T02:48:03.540Z,99.99
2018-03-14T02:49:03.559Z,99.99
2018-03-14T02:50:03.486Z,99.99
2018-03-14T02:51:03.453Z,99.99
2018-03-14T02:52:03.424Z,99.99
2018-03-14T02:53:03.517Z,99.99
2018-03-14T02:54:03.363Z,99.99
2018-03-14T02:55:03.373Z,99.99
2018-03-14T02:56:03.308Z,99.99
2018-03-14T02:57:03.282Z,99.99
2018-03-14T02:58:03.247Z,99.99
2018-03-14T02:59:03.258Z,99.99
2018-03-14T03:00:03.196Z,99.99
2018-03-14T03:01:03.163Z,99.99
2018-03-14T03:02:03.134Z,99.99
2018-03-14T03:03:03.147Z,99.99
2018-03-14T03:04:03.107Z,99.99
2018-03-14T03:05:03.076Z,99.99
2018-03-14T03:06:03.028Z,99.99
2018-03-14T03:07:03.030Z,99.99
2018-03-14T03:08:02.997Z,99.99
2018-03-14T03:09:02.944Z,99.99
2018-03-14T03:10:02.896Z,99.99
2018-03-14T03:11:02.869Z,99.99
2018-03-14T03:12:02.838Z,99.99
2018-03-14T03:13:02.851Z,99.99
2018-03-14T03:14:02.785Z,99.99
2018-03-14T03:15:02.756Z,99.99
2018-03-14T03:16:02.766Z,99.99
2018-03-14T03:17:02.702Z,99.99
2018-03-14T03:18:02.708Z,99.99
2018-03-14T03:19:02.688Z,99.99
2018-03-14T03:20:02.643Z,99.99
2018-03-14T03:21:02.578Z,99.99
2018-03-14T03:22:02.591Z,99.99
2018-03-14T03:23:02.516Z,99.99
2018-03-14T03:24:02.489Z,99.99
2018-03-14T03:25:02.524Z,99.99
2018-03-14T03:26:02.429Z,99.99
2018-03-14T03:27:02.406Z,99.99
2018-03-14T03:28:02.383Z,99.99
2018-03-14T03:29:02.366Z,99.99
2018-03-14T03:30:02.371Z,99.99
2018-03-14T03:31:02.295Z,99.99
2018-03-14T03:32:02.255Z,99.99
2018-03-14T03:33:02.224Z,99.99
2018-03-14T03:34:02.248Z,99.99
2018-03-14T03:35:02.167Z,99.99
2018-03-14T03:36:02.140Z,99.99
2018-03-14T03:37:02.107Z,99.99
2018-03-14T03:38:02.077Z,99.99
2018-03-14T03:39:02.097Z,99.99
2018-03-14T03:40:02.045Z,99.99
2018-03-14T03:41:01.997Z,99.99
2018-03-14T03:42:01.963Z,99.99
2018-03-14T03:43:01.987Z,99.99
2018-03-14T03:44:01.907Z,99.99
2018-03-14T03:45:01.877Z,99.99
2018-03-14T03:46:01.868Z,99.99
2018-03-14T03:47:01.820Z,99.99
2018-03-14T03:48:01.824Z,99.99
2018-03-14T03:49:01.761Z,99.99
2018-03-14T03:50:01.769Z,99.99
2018-03-14T03:51:01.743Z,99.99
2018-03-14T03:52:01.674Z,99.99
2018-03-14T03:53:02.469Z,99.99
2018-03-14T03:54:01.658Z,99.99
2018-03-14T03:55:01.580Z,99.53
2018-03-14T03:56:01.600Z,99.68
2018-03-14T03:57:01.520Z,99.99
2018-03-14T03:58:01.527Z,99.82
2018-03-14T03:59:01.467Z,99.99
2018-03-14T04:00:01.444Z,99.15
2018-03-14T04:01:01.453Z,99.06
2018-03-14T04:02:01.421Z,99.15
2018-03-14T04:03:01.352Z,99.20
2018-03-14T04:04:01.319Z,99.99
2018-03-14T04:05:01.290Z,99.39
2018-03-14T04:06:01.310Z,99.01
2018-03-14T04:07:01.284Z,98.54
2018-03-14T04:08:01.210Z,98.07
2018-03-14T04:09:01.974Z,97.88
2018-03-14T04:10:01.192Z,97.92
2018-03-14T04:11:01.134Z,97.12
2018-03-14T04:12:01.146Z,97.35
2018-03-14T04:13:01.067Z,97.16
2018-03-14T04:14:01.040Z,97.35
2018-03-14T04:15:00.999Z,97.07
2018-03-14T04:16:00.971Z,97.64
2018-03-14T04:17:01.024Z,97.78
2018-03-14T04:18:00.911Z,97.73
2018-03-14T04:19:00.879Z,97.97
2018-03-14T04:20:00.906Z,98.11
2018-03-14T04:21:00.819Z,97.26
2018-03-14T04:22:00.796Z,97.97
2018-03-14T04:23:00.768Z,97.83
2018-03-14T04:24:00.792Z,98.30
2018-03-14T04:25:00.704Z,98.39
2018-03-14T04:26:00.680Z,98.96
2018-03-14T04:27:00.654Z,97.92
2018-03-14T04:28:00.616Z,98.11
2018-03-14T04:29:00.637Z,98.39
2018-03-14T04:30:00.610Z,97.73
2018-03-14T04:31:00.577Z,97.45
2018-03-14T04:32:00.501Z,97.07
2018-03-14T04:33:00.469Z,97.78
2018-03-14T04:34:00.453Z,97.64
2018-03-14T04:35:01.388Z,97.83
2018-03-14T04:36:00.429Z,98.25
2018-03-14T04:37:00.404Z,97.83
2018-03-14T04:38:00.329Z,97.92
2018-03-14T04:39:00.297Z,97.69
2018-03-14T04:40:00.266Z,97.83
2018-03-14T04:41:00.284Z,98.39
2018-03-14T04:42:00.209Z,99.53
2018-03-14T04:43:00.180Z,98.68
2018-03-14T04:44:00.211Z,98.39
2018-03-14T04:45:00.122Z,98.58
2018-03-14T04:46:00.092Z,98.30
2018-03-14T04:47:00.070Z,97.83
2018-03-14T04:48:00.035Z,97.54
2018-03-14T04:49:00.538Z,98.16
2018-03-14T04:49:59.973Z,97.83
2018-03-14T04:50:59.952Z,98.30
2018-03-14T04:51:59.918Z,98.96
2018-03-14T04:52:59.883Z,99.06
2018-03-14T04:53:59.906Z,98.77
2018-03-14T04:54:59.833Z,97.83
2018-03-14T04:55:59.851Z,98.16
2018-03-14T04:56:59.816Z,98.11
2018-03-14T04:57:59.756Z,98.58
2018-03-14T04:58:59.712Z,98.58
2018-03-14T04:59:59.681Z,98.58
2018-03-14T05:00:59.699Z,98.68
2018-03-14T05:01:59.670Z,98.87
2018-03-14T05:02:59.602Z,99.58
2018-03-14T05:03:59.616Z,99.25
2018-03-14T05:04:59.540Z,99.25
2018-03-14T05:05:59.508Z,99.49
2018-03-14T05:06:59.481Z,99.63
2018-03-14T05:07:59.460Z,99.34
2018-03-14T05:08:59.473Z,99.72
2018-03-14T05:09:59.395Z,99.63
2018-03-14T05:10:59.376Z,99.99
2018-03-14T05:11:59.338Z,99.99
2018-03-14T05:12:59.304Z,99.99
2018-03-14T05:13:59.321Z,99.99
2018-03-14T05:14:59.244Z,99.99
2018-03-14T05:15:59.236Z,99.99
2018-03-14T05:16:59.891Z,99.99
2018-03-14T05:17:59.258Z,99.99
2018-03-14T05:18:59.189Z,99.99
2018-03-14T05:19:59.097Z,99.99
2018-03-14T05:20:59.079Z,99.99
2018-03-14T05:21:59.039Z,99.99
2018-03-14T05:22:59.016Z,99.99
2018-03-14T05:23:59.025Z,99.99
2018-03-14T05:24:58.993Z,99.99
2018-03-14T05:25:58.923Z,99.99
2018-03-14T05:26:58.896Z,99.99
2018-03-14T05:27:58.868Z,99.99
2018-03-14T05:28:58.881Z,99.99
2018-03-14T05:29:58.822Z,99.99
2018-03-14T05:30:58.828Z,99.99
2018-03-14T05:31:58.762Z,99.99
2018-03-14T05:32:58.725Z,99.99
2018-03-14T05:33:58.699Z,99.99
2018-03-14T05:34:58.710Z,99.99
2018-03-14T05:35:58.635Z,99.99
2018-03-14T05:36:58.599Z,99.99
2018-03-14T05:37:58.633Z,99.99
2018-03-14T05:38:58.585Z,99.99
2018-03-14T05:39:58.560Z,99.99
2018-03-14T05:40:58.483Z,99.99
2018-03-14T05:41:58.456Z,99.99
2018-03-14T05:42:58.432Z,99.99
2018-03-14T05:43:58.405Z,99.99
2018-03-14T05:44:58.413Z,99.99
2018-03-14T05:45:58.374Z,99.99
2018-03-14T05:46:58.309Z,99.99
2018-03-14T05:47:58.280Z,99.99
2018-03-14T05:48:58.297Z,99.99
2018-03-14T05:49:58.219Z,99.99
2018-03-14T05:50:58.193Z,99.99
2018-03-14T05:51:58.158Z,99.99
2018-03-14T05:52:58.175Z,99.99
2018-03-14T05:53:58.984Z,99.99
2018-03-14T05:54:58.079Z,99.99
2018-03-14T05:55:58.046Z,99.99
2018-03-14T05:56:58.065Z,99.99
2018-03-14T05:57:58.977Z,99.99
2018-03-14T05:58:58.002Z,99.99
2018-03-14T05:59:57.932Z,99.99
2018-03-14T06:00:57.949Z,99.99
2018-03-14T06:01:57.867Z,99.99
2018-03-14T06:02:57.846Z,99.99
2018-03-14T06:03:57.850Z,99.99
2018-03-14T06:04:57.805Z,99.99
2018-03-14T06:05:57.758Z,99.99
2018-03-14T06:06:57.770Z,99.99
2018-03-14T06:07:57.696Z,99.99
2018-03-14T06:08:57.714Z,99.99
2018-03-14T06:09:57.639Z,99.99
2018-03-14T06:10:57.661Z,99.99
2018-03-14T06:11:57.575Z,99.99
2018-03-14T06:12:57.553Z,99.99
2018-03-14T06:13:58.496Z,99.99
2018-03-14T06:14:57.491Z,99.99
2018-03-14T06:15:57.514Z,99.99
2018-03-14T06:16:57.433Z,99.99
2018-03-14T06:17:57.401Z,99.99
2018-03-14T06:18:57.416Z,99.99
2018-03-14T06:19:57.346Z,99.99
2018-03-14T06:20:57.367Z,99.99
2018-03-14T06:21:57.984Z,99.99
2018-03-14T06:22:57.255Z,99.99
2018-03-14T06:23:57.226Z,99.99
2018-03-14T06:24:57.239Z,99.99
2018-03-14T06:25:57.167Z,99.99
2018-03-14T06:26:57.183Z,99.99
2018-03-14T06:27:57.155Z,99.99
2018-03-14T06:28:57.085Z,99.99
2018-03-14T06:29:57.089Z,99.99
2018-03-14T06:30:57.072Z,99.99
2018-03-14T06:31:57.000Z,99.99
2018-03-14T06:32:57.008Z,99.99
2018-03-14T06:33:57.002Z,99.99
2018-03-14T06:34:56.916Z,99.99
2018-03-14T06:35:56.924Z,99.99
2018-03-14T06:36:56.855Z,99.99
2018-03-14T06:37:56.869Z,99.99
2018-03-14T06:38:56.796Z,99.99
2018-03-14T06:39:56.775Z,99.99
2018-03-14T06:40:56.780Z,99.99
2018-03-14T06:41:56.705Z,99.99
2018-03-14T06:42:56.738Z,99.99
2018-03-14T06:43:56.652Z,99.99
2018-03-14T06:44:56.624Z,99.99
2018-03-14T06:45:56.594Z,99.99
2018-03-14T06:46:56.566Z,99.99
2018-03-14T06:47:56.577Z,99.99
2018-03-14T06:48:56.506Z,99.99
2018-03-14T06:49:56.479Z,99.99
2018-03-14T06:50:56.491Z,99.99
2018-03-14T06:51:56.424Z,99.99
2018-03-14T06:52:56.388Z,99.99
2018-03-14T06:53:56.363Z,99.99
2018-03-14T06:54:56.376Z,99.99
2018-03-14T06:55:56.303Z,99.99
2018-03-14T06:56:56.273Z,99.99
2018-03-14T06:57:56.249Z,99.99
2018-03-14T06:58:56.214Z,99.99
2018-03-14T06:59:56.233Z,99.99
2018-03-14T07:00:56.163Z,99.99
2018-03-14T07:01:56.127Z,99.99
2018-03-14T07:02:56.099Z,99.99
2018-03-14T07:03:56.076Z,99.99
2018-03-14T07:04:56.085Z,99.77
2018-03-14T07:05:56.018Z,99.01
2018-03-14T07:06:55.990Z,99.39
2018-03-14T07:07:55.961Z,99.96
2018-03-14T07:08:55.930Z,99.96
2018-03-14T07:09:55.949Z,99.58
2018-03-14T07:10:55.875Z,99.58
2018-03-14T07:11:55.891Z,99.58
2018-03-14T07:12:55.820Z,99.11
2018-03-14T07:13:56.486Z,99.87
2018-03-14T07:14:55.767Z,99.49
2018-03-14T07:15:55.741Z,98.78
2018-03-14T07:16:55.741Z,99.01
2018-03-14T07:17:55.676Z,99.20
2018-03-14T07:18:55.690Z,98.92
2018-03-14T07:19:55.617Z,99.20
2018-03-14T07:20:55.590Z,99.39
2018-03-14T07:21:55.558Z,99.01
2018-03-14T07:22:55.540Z,98.92
2018-03-14T07:23:55.560Z,98.92
2018-03-14T07:24:55.476Z,99.01
2018-03-14T07:25:55.445Z,98.82
2018-03-14T07:26:55.421Z,98.82
2018-03-14T07:27:55.390Z,99.49
2018-03-14T07:28:55.415Z,99.49
2018-03-14T07:29:55.332Z,99.58
2018-03-14T07:30:55.303Z,98.92
2018-03-14T07:31:55.278Z,98.82
2018-03-14T07:32:55.252Z,99.01
2018-03-14T07:33:55.262Z,98.92
2018-03-14T07:34:55.200Z,99.01
2018-03-14T07:35:55.169Z,98.92
2018-03-14T07:36:55.134Z,99.87
2018-03-14T07:37:55.154Z,99.58
2018-03-14T07:38:55.084Z,99.39
2018-03-14T07:39:55.049Z,99.68
2018-03-14T07:40:55.020Z,99.68
2018-03-14T07:41:55.489Z,99.49
2018-03-14T07:42:55.010Z,98.82
2018-03-14T07:43:54.931Z,98.63
2018-03-14T07:44:54.909Z,98.54
2018-03-14T07:45:55.053Z,98.92
2018-03-14T07:46:54.843Z,98.54
2018-03-14T07:47:54.820Z,98.35
2018-03-14T07:48:54.793Z,98.16
2018-03-14T07:49:54.762Z,98.63
2018-03-14T07:50:54.777Z,98.82
2018-03-14T07:51:54.712Z,99.77
2018-03-14T07:52:54.675Z,98.82
2018-03-14T07:53:54.693Z,97.69
2018-03-14T07:54:54.620Z,97.69
2018-03-14T07:55:54.598Z,97.97
2018-03-14T07:56:54.615Z,97.78
2018-03-14T07:57:54.532Z,97.78
2018-03-14T07:58:54.566Z,97.97
2018-03-14T07:59:54.483Z,97.97
2018-03-14T08:00:54.447Z,97.78
2018-03-14T08:01:54.487Z,98.44
2018-03-14T08:02:54.391Z,97.97
2018-03-14T08:03:54.368Z,97.31
2018-03-14T08:04:54.342Z,96.92
2018-03-14T08:05:54.308Z,97.59
2018-03-14T08:06:54.315Z,97.45
2018-03-14T08:07:54.299Z,97.36
2018-03-14T08:08:54.224Z,96.88
2018-03-14T08:09:54.188Z,96.97
2018-03-14T08:10:54.180Z,96.59
2018-03-14T08:11:54.181Z,96.78
2018-03-14T08:12:54.151Z,96.50
2018-03-14T08:13:54.214Z,97.45
2018-03-14T08:14:54.058Z,97.36
2018-03-14T08:15:54.024Z,96.50
2018-03-14T08:16:53.993Z,96.41
2018-03-14T08:17:54.020Z,96.31
2018-03-14T08:18:53.936Z,96.12
2018-03-14T08:19:53.906Z,96.50
2018-03-14T08:20:53.926Z,96.69
2018-03-14T08:21:53.853Z,96.78
2018-03-14T08:22:53.828Z,96.22
2018-03-14T08:23:53.896Z,95.46
2018-03-14T08:24:53.770Z,95.65
2018-03-14T08:25:53.739Z,95.36
2018-03-14T08:26:53.714Z,96.12
2018-03-14T08:27:53.685Z,95.65
2018-03-14T08:28:53.701Z,94.42
2018-03-14T08:29:53.688Z,95.46
2018-03-14T08:30:53.680Z,94.98
2018-03-14T08:31:53.575Z,95.36
2018-03-14T08:32:53.545Z,94.98
2018-03-14T08:33:54.491Z,94.03
2018-03-14T08:34:53.533Z,94.79
2018-03-14T08:35:53.464Z,94.42
2018-03-14T08:36:53.435Z,94.32
2018-03-14T08:37:53.408Z,95.36
2018-03-14T08:38:53.430Z,94.89
2018-03-14T08:39:53.351Z,94.42
2018-03-14T08:40:53.369Z,94.98
2018-03-14T08:41:53.299Z,95.46
2018-03-14T08:42:53.315Z,95.07
2018-03-14T08:43:53.246Z,94.79
2018-03-14T08:44:53.210Z,96.50
2018-03-14T08:45:53.188Z,95.46
2018-03-14T08:46:53.171Z,95.27
2018-03-14T08:47:53.173Z,95.27
2018-03-14T08:48:53.100Z,96.41
2018-03-14T08:49:53.072Z,96.31
2018-03-14T08:50:53.085Z,96.50
2018-03-14T08:51:53.022Z,97.36
2018-03-14T08:52:52.990Z,95.36
2018-03-14T08:53:52.962Z,95.55
2018-03-14T08:54:52.939Z,95.41
2018-03-14T08:55:52.956Z,95.60
2018-03-14T08:56:52.877Z,95.41
2018-03-14T08:57:52.851Z,96.08
2018-03-14T08:58:52.864Z,96.73
2018-03-14T08:59:52.791Z,96.83
2018-03-14T09:00:52.812Z,97.59
2018-03-14T09:01:52.737Z,97.88
2018-03-14T09:02:52.748Z,98.63
2018-03-14T09:03:52.679Z,98.73
2018-03-14T09:04:52.693Z,98.25
2018-03-14T09:05:52.623Z,98.82
2018-03-14T09:06:52.597Z,99.39
2018-03-14T09:07:52.568Z,98.82
2018-03-14T09:08:52.537Z,98.92
2018-03-14T09:09:52.546Z,99.44
2018-03-14T09:10:52.529Z,99.20
2018-03-14T09:11:52.551Z,98.25
2018-03-14T09:12:52.428Z,97.88
2018-03-14T09:13:52.392Z,97.88
2018-03-14T09:14:52.368Z,97.97
2018-03-14T09:15:52.384Z,97.69
2018-03-14T09:16:52.323Z,97.69
2018-03-14T09:17:52.282Z,97.78
2018-03-14T09:18:52.255Z,98.35
2018-03-14T09:19:52.231Z,98.92
2018-03-14T09:20:52.248Z,98.92
2018-03-14T09:21:52.172Z,99.49
2018-03-14T09:22:52.159Z,99.49
2018-03-14T09:23:52.120Z,98.73
2018-03-14T09:24:52.083Z,99.39
2018-03-14T09:25:52.099Z,99.30
2018-03-14T09:26:52.037Z,99.87
2018-03-14T09:27:51.998Z,99.99
2018-03-14T09:28:52.014Z,99.99
2018-03-14T09:29:51.939Z,99.44
2018-03-14T09:30:51.971Z,99.82
2018-03-14T09:31:51.891Z,99.99
2018-03-14T09:32:51.861Z,99.91
2018-03-14T09:33:51.830Z,99.99
2018-03-14T09:34:51.802Z,99.06
2018-03-14T09:35:51.818Z,98.02
2018-03-14T09:36:51.745Z,98.21
2018-03-14T09:37:51.711Z,98.87
2018-03-14T09:38:51.689Z,99.16
2018-03-14T09:39:51.701Z,99.44
2018-03-14T09:40:51.634Z,98.78
2018-03-14T09:41:51.606Z,99.26
2018-03-14T09:42:51.576Z,99.54
2018-03-14T09:43:51.596Z,98.68
2018-03-14T09:44:51.516Z,97.45
2018-03-14T09:45:51.529Z,97.07
2018-03-14T09:46:51.463Z,96.97
2018-03-14T09:47:51.478Z,97.26
2018-03-14T09:48:51.425Z,97.92
2018-03-14T09:49:51.421Z,97.92
2018-03-14T09:50:51.349Z,97.17
2018-03-14T09:51:51.320Z,96.88
2018-03-14T09:52:51.292Z,96.97
2018-03-14T09:53:51.318Z,96.50
2018-03-14T09:54:51.250Z,96.59
2018-03-14T09:55:51.212Z,96.78
2018-03-14T09:56:51.185Z,96.41
2018-03-14T09:57:52.916Z,96.41
2018-03-14T09:58:51.190Z,95.55
2018-03-14T09:59:51.107Z,95.74
2018-03-14T10:00:51.076Z,96.31
2018-03-14T10:01:51.045Z,96.22
2018-03-14T10:02:51.015Z,95.74
2018-03-14T10:03:51.073Z,96.12
2018-03-14T10:04:50.962Z,95.55
2018-03-14T10:05:50.931Z,94.89
2018-03-14T10:06:50.903Z,94.51
2018-03-14T10:07:50.918Z,93.94
2018-03-14T10:08:50.850Z,93.94
2018-03-14T10:09:50.879Z,95.70
2018-03-14T10:10:50.792Z,94.37
2018-03-14T10:11:50.784Z,94.18
2018-03-14T10:12:50.739Z,93.80
2018-03-14T10:13:50.714Z,93.80
2018-03-14T10:14:50.728Z,93.60
2018-03-14T10:15:50.700Z,93.56
2018-03-14T10:16:50.633Z,92.51
2018-03-14T10:17:50.630Z,91.85
2018-03-14T10:18:50.584Z,91.47
2018-03-14T10:19:50.551Z,91.47
2018-03-14T10:20:50.563Z,91.09
2018-03-14T10:21:50.594Z,90.05
2018-03-14T10:22:50.470Z,89.76
2018-03-14T10:23:50.454Z,88.71
2018-03-14T10:24:50.418Z,88.71
2018-03-14T10:25:50.580Z,88.43
2018-03-14T10:26:50.413Z,88.24
2018-03-14T10:27:50.348Z,88.15
2018-03-14T10:28:50.360Z,89.19
2018-03-14T10:29:50.311Z,89.47
2018-03-14T10:30:50.301Z,89.47
2018-03-14T10:31:50.277Z,90.99
2018-03-14T10:32:50.219Z,91.56
2018-03-14T10:33:50.188Z,91.42
2018-03-14T10:34:50.210Z,91.47
2018-03-14T10:35:50.141Z,90.85
2018-03-14T10:36:50.168Z,89.09
2018-03-14T10:37:50.126Z,89.42
2018-03-14T10:38:50.068Z,88.47
2018-03-14T10:39:50.031Z,87.62
2018-03-14T10:40:50.063Z,87.29
2018-03-14T10:41:50.277Z,87.52
2018-03-14T10:42:49.951Z,87.34
2018-03-14T10:43:49.926Z,87.34
2018-03-14T10:44:49.906Z,86.57
2018-03-14T10:45:49.876Z,88.05
2018-03-14T10:46:49.899Z,88.90
2018-03-14T10:47:49.874Z,89.47
2018-03-14T10:48:49.799Z,88.90
2018-03-14T10:49:49.775Z,86.72
2018-03-14T10:50:49.746Z,86.43
2018-03-14T10:51:49.719Z,86.82
2018-03-14T10:52:49.764Z,87.86
2018-03-14T10:53:49.665Z,87.57
2018-03-14T10:54:49.643Z,88.05
2018-03-14T10:55:49.617Z,88.53
2018-03-14T10:56:49.599Z,88.34
2018-03-14T10:57:49.713Z,89.19
2018-03-14T10:58:49.545Z,89.19
2018-03-14T10:59:49.527Z,88.53
2018-03-14T11:00:49.485Z,88.53
2018-03-14T11:01:49.457Z,90.05
2018-03-14T11:02:49.488Z,89.28
2018-03-14T11:03:49.409Z,89.28
2018-03-14T11:04:49.393Z,89.09
2018-03-14T11:05:49.356Z,90.23
2018-03-14T11:06:49.326Z,91.38
2018-03-14T11:07:49.390Z,89.09
2018-03-14T11:08:49.275Z,88.53
2018-03-14T11:09:49.248Z,88.90
2018-03-14T11:10:49.223Z,88.43
2018-03-14T11:11:49.192Z,88.67
2018-03-14T11:12:49.215Z,89.90
2018-03-14T11:13:49.146Z,89.43
2018-03-14T11:14:49.117Z,89.90
2018-03-14T11:15:49.095Z,88.95
2018-03-14T11:16:49.079Z,88.29
2018-03-14T11:17:49.313Z,88.01
2018-03-14T11:18:49.013Z,88.67
2018-03-14T11:19:49.029Z,88.48
2018-03-14T11:20:48.952Z,89.14
2018-03-14T11:21:48.928Z,89.90
2018-03-14T11:22:48.900Z,89.90
2018-03-14T11:23:48.927Z,88.39
2018-03-14T11:24:48.846Z,89.43
2018-03-14T11:25:48.832Z,89.62
2018-03-14T11:26:48.795Z,89.14
2018-03-14T11:27:48.810Z,89.81
2018-03-14T11:28:48.753Z,90.28
2018-03-14T11:29:48.713Z,89.62
2018-03-14T11:30:48.683Z,90.47
2018-03-14T11:31:48.659Z,90.47
2018-03-14T11:32:48.672Z,90.85
2018-03-14T11:33:48.604Z,91.24
2018-03-14T11:34:48.583Z,91.89
2018-03-14T11:35:48.546Z,92.28
2018-03-14T11:36:48.518Z,91.61
2018-03-14T11:37:48.531Z,91.71
2018-03-14T11:38:48.468Z,90.57
2018-03-14T11:39:48.475Z,90.85
2018-03-14T11:40:48.457Z,89.58
2018-03-14T11:41:49.021Z,90.57
2018-03-14T11:42:48.352Z,90.71
2018-03-14T11:43:48.329Z,91.14
2018-03-14T11:44:48.301Z,91.61
2018-03-14T11:45:48.316Z,92.18
2018-03-14T11:46:48.931Z,91.28
2018-03-14T11:47:48.214Z,91.28
2018-03-14T11:48:48.230Z,92.14
2018-03-14T11:49:48.174Z,92.66
2018-03-14T11:50:48.180Z,92.80
2018-03-14T11:51:48.106Z,93.08
2018-03-14T11:52:48.079Z,93.04
2018-03-14T11:53:48.050Z,92.23
2018-03-14T11:54:48.104Z,93.94
2018-03-14T11:55:47.994Z,93.46
2018-03-14T11:56:48.006Z,92.42
2018-03-14T11:57:47.939Z,92.61
2018-03-14T11:58:47.951Z,92.52
2018-03-14T11:59:47.934Z,92.80
2018-03-14T12:00:47.858Z,92.90
2018-03-14T12:01:47.824Z,93.37
2018-03-14T12:02:47.803Z,93.84
2018-03-14T12:03:47.773Z,93.75
2018-03-14T12:04:47.792Z,93.84
2018-03-14T12:05:47.718Z,94.89
2018-03-14T12:06:47.696Z,95.74
2018-03-14T12:07:47.706Z,95.55
2018-03-14T12:08:47.631Z,94.98
2018-03-14T12:09:47.604Z,95.17
2018-03-14T12:10:47.578Z,95.55
2018-03-14T12:11:47.546Z,96.03
2018-03-14T12:12:47.569Z,98.59
2018-03-14T12:13:47.493Z,97.64
2018-03-14T12:14:47.462Z,95.93
2018-03-14T12:15:47.439Z,95.36
2018-03-14T12:16:47.418Z,95.36
2018-03-14T12:17:47.444Z,95.46
2018-03-14T12:18:47.353Z,95.84
2018-03-14T12:19:47.325Z,95.36
2018-03-14T12:20:47.301Z,95.93
2018-03-14T12:21:47.268Z,95.27
2018-03-14T12:22:47.284Z,96.03
2018-03-14T12:23:47.217Z,96.50
2018-03-14T12:24:47.186Z,94.89
2018-03-14T12:25:47.210Z,94.79
2018-03-14T12:26:47.175Z,94.79
2018-03-14T12:27:47.104Z,94.42
2018-03-14T12:28:47.076Z,94.60
2018-03-14T12:29:47.051Z,94.60
2018-03-14T12:30:47.048Z,95.17
2018-03-14T12:31:47.034Z,94.23
2018-03-14T12:32:46.999Z,95.17
2018-03-14T12:33:46.934Z,95.36
2018-03-14T12:34:46.981Z,96.12
2018-03-14T12:35:46.880Z,95.74
2018-03-14T12:36:46.905Z,95.55
2018-03-14T12:37:46.824Z,95.17
2018-03-14T12:38:46.798Z,96.03
2018-03-14T12:39:46.770Z,96.69
2018-03-14T12:40:46.786Z,96.03
2018-03-14T12:41:46.716Z,95.36
2018-03-14T12:42:46.741Z,95.46
2018-03-14T12:43:46.685Z,96.31
2018-03-14T12:44:46.626Z,96.22
2018-03-14T12:45:46.613Z,96.03
2018-03-14T12:46:46.578Z,95.07
2018-03-14T12:47:46.589Z,93.75
2018-03-14T12:48:46.518Z,94.60
2018-03-14T12:49:46.489Z,95.74
2018-03-14T12:50:46.463Z,95.36
2018-03-14T12:51:46.436Z,96.31